Terminal Aerodrome Forecast
Issued by NWS

Home | Current Version | Previous Version | Graphics & Text | Print | Product List | Glossary Off
Versions: 1 2 3 4 5 6 7 8 9 10 11 12 13 14 15 16 17 18 19 20 21

000
FTUS43 KDDC 230200 AAB
TAFGCK
TAF AMD
KGCK 230224Z 2302/2324 15020G28KT P6SM SCT250
      TEMPO 2302/2303 5SM -TSRA BKN050CB
     FM231400 20027G37KT P6SM SCT250=

USA.gov is the U.S. government's official web portal to all federal, state and local government web resources and services.